Time;durP1;ratioP1;P1;durP2;ratioP2;P2;SDS_P1;SDS_P2;PMS_P1;PMS_P2;Temp;Humidity;BMP_temperature;BMP_pressure;BME280_temperature;BME280_humidity;BME280_pressure;Samples;Min_cycle;Max_cycle;Signal;HPM_P1;HPM_P2
2022/07/31 00:01:13;;;;;;;7.03;6.43;;;21.80;45.20;;;;;;5053702;28;20465;-45
2022/07/31 00:03:40;;;;;;;9.23;8.00;;;21.70;45.20;;;;;;5053628;28;20411;-45
2022/07/31 00:06:07;;;;;;;8.83;7.80;;;21.70;45.20;;;;;;5053726;28;20404;-45
2022/07/31 00:08:33;;;;;;;9.00;7.30;;;21.70;45.10;;;;;;5053539;28;20430;-46
2022/07/31 00:10:59;;;;;;;7.97;6.40;;;21.60;45.00;;;;;;5053539;28;20505;-44
2022/07/31 00:13:25;;;;;;;9.70;7.37;;;21.60;44.90;;;;;;5053558;28;20400;-45
2022/07/31 00:15:50;;;;;;;12.63;7.57;;;21.60;44.90;;;;;;5053269;28;20510;-44
2022/07/31 00:18:16;;;;;;;8.33;7.23;;;21.50;45.00;;;;;;5053618;28;20200;-45
2022/07/31 00:20:43;;;;;;;9.67;8.67;;;21.40;45.00;;;;;;5035692;28;20193;-45
2022/07/31 00:23:09;;;;;;;8.90;8.07;;;21.40;45.10;;;;;;5053219;28;20250;-45
2022/07/31 00:25:35;;;;;;;8.07;7.23;;;21.40;45.20;;;;;;5053044;28;20422;-44
2022/07/31 00:28:01;;;;;;;7.97;7.20;;;21.40;45.20;;;;;;5053172;28;20794;-45
2022/07/31 00:30:27;;;;;;;10.20;8.27;;;21.40;45.50;;;;;;5053019;28;20436;-45
2022/07/31 00:32:53;;;;;;;11.50;8.00;;;21.40;45.40;;;;;;5053214;28;20447;-45
2022/07/31 00:35:19;;;;;;;9.00;7.13;;;21.40;45.30;;;;;;5053405;28;20465;-45
2022/07/31 00:37:45;;;;;;;8.63;7.63;;;21.40;45.10;;;;;;5052793;28;20462;-44
2022/07/31 00:40:14;;;;;;;8.93;7.53;;;21.30;45.20;;;;;;5052884;28;20443;-45
2022/07/31 00:42:40;;;;;;;8.77;7.43;;;21.30;45.10;;;;;;5053071;28;20824;-45
2022/07/31 00:45:08;;;;;;;8.23;6.47;;;21.30;45.10;;;;;;5053050;28;20419;-45
2022/07/31 00:47:34;;;;;;;10.30;8.53;;;21.30;45.10;;;;;;5052496;28;20912;-45
2022/07/31 00:49:59;;;;;;;7.07;6.33;;;21.20;44.90;;;;;;5052776;28;20428;-45
2022/07/31 00:52:25;;;;;;;11.07;7.57;;;21.20;45.10;;;;;;5052690;28;20663;-45
2022/07/31 00:54:51;;;;;;;10.57;7.37;;;21.20;45.00;;;;;;5052689;28;20170;-44
2022/07/31 00:57:17;;;;;;;7.83;6.80;;;21.20;45.10;;;;;;5052536;28;20419;-45
2022/07/31 00:59:43;;;;;;;7.35;6.65;;;21.20;44.90;;;;;;5052486;28;20950;-45
2022/07/31 01:02:09;;;;;;;7.67;6.93;;;21.10;45.00;;;;;;5052516;28;20220;-44
2022/07/31 01:04:35;;;;;;;7.23;6.33;;;21.10;44.90;;;;;;5052565;28;20800;-44
2022/07/31 01:07:02;;;;;;;8.87;6.87;;;21.10;45.10;;;;;;5052216;28;20418;-45
2022/07/31 01:09:28;;;;;;;7.50;6.75;;;21.00;45.00;;;;;;5052386;28;20435;-46
2022/07/31 01:12:11;;;;;;;7.72;6.93;;;21.00;45.00;;;;;;5052330;28;20204;-45
2022/07/31 01:14:49;;;;;;;9.13;6.68;;;21.00;45.00;;;;;;5052263;28;20162;-44
2022/07/31 01:17:16;;;;;;;10.30;7.37;;;20.90;45.10;;;;;;5052374;28;20704;-45
2022/07/31 01:19:47;;;;;;;10.20;8.00;;;20.90;45.10;;;;;;5052231;28;20423;-46
2022/07/31 01:22:34;;;;;;;7.03;6.07;;;20.80;45.10;;;;;;5052466;28;20768;-46
2022/07/31 01:25:33;;;;;;;8.43;7.50;;;20.90;45.30;;;;;;5052403;28;20161;-46
2022/07/31 01:28:24;;;;;;;6.60;5.93;;;20.80;45.20;;;;;;5052219;28;20161;-45
2022/07/31 01:31:05;;;;;;;8.80;7.97;;;20.80;45.30;;;;;;5052266;28;20351;-46
2022/07/31 01:33:45;;;;;;;8.10;6.95;;;20.80;45.30;;;;;;5052143;28;20157;-44
2022/07/31 01:36:15;;;;;;;6.88;6.25;;;20.70;45.30;;;;;;5057686;28;20162;-42
2022/07/31 01:38:44;;;;;;;11.18;7.80;;;20.70;45.50;;;;;;5059718;28;20162;-44
2022/07/31 01:41:13;;;;;;;7.05;6.15;;;20.70;45.40;;;;;;5059723;28;20260;-44
2022/07/31 01:43:41;;;;;;;8.18;7.30;;;20.70;45.50;;;;;;5058303;28;20181;-43
2022/07/31 01:46:11;;;;;;;7.88;6.57;;;20.70;45.40;;;;;;5059612;28;20177;-43
2022/07/31 01:48:39;;;;;;;9.20;6.90;;;20.70;45.40;;;;;;5059818;28;20169;-42
2022/07/31 01:51:07;;;;;;;8.70;7.90;;;20.70;45.30;;;;;;5058352;28;20223;-46
2022/07/31 01:53:35;;;;;;;8.17;7.37;;;20.60;45.30;;;;;;5052845;28;20171;-45
2022/07/31 01:56:01;;;;;;;7.15;6.45;;;20.60;45.30;;;;;;5051965;28;20399;-47
2022/07/31 01:58:32;;;;;;;9.27;6.97;;;20.60;45.30;;;;;;5052025;28;20180;-45
2022/07/31 02:00:59;;;;;;;7.88;7.07;;;20.60;45.30;;;;;;5051895;28;20400;-46
2022/07/31 02:03:26;;;;;;;9.00;6.50;;;20.60;45.30;;;;;;5051840;28;20173;-46
2022/07/31 02:05:53;;;;;;;6.45;5.85;;;20.50;45.30;;;;;;5051599;28;20264;-46
2022/07/31 02:08:20;;;;;;;17.48;6.78;;;20.50;45.30;;;;;;5054149;28;20536;-47
2022/07/31 02:10:47;;;;;;;8.20;7.32;;;20.50;45.20;;;;;;5055638;28;20233;-47
2022/07/31 02:13:14;;;;;;;8.93;6.85;;;20.50;45.30;;;;;;5055786;28;20170;-45
2022/07/31 02:15:42;;;;;;;6.80;6.03;;;20.50;45.40;;;;;;5055568;28;20252;-45
2022/07/31 02:18:09;;;;;;;11.35;6.35;;;20.50;45.30;;;;;;5055656;28;20182;-45
2022/07/31 02:20:38;;;;;;;7.25;6.53;;;20.40;45.20;;;;;;5055596;28;20228;-46
2022/07/31 02:23:04;;;;;;;7.15;6.18;;;20.40;45.20;;;;;;5055500;28;20180;-47
2022/07/31 02:25:34;;;;;;;8.63;7.45;;;20.40;45.30;;;;;;5055428;28;20726;-47
2022/07/31 02:28:06;;;;;;;6.57;5.95;;;20.40;45.20;;;;;;5055599;28;20192;-47
2022/07/31 02:30:34;;;;;;;7.30;6.15;;;20.30;45.30;;;;;;5055364;28;20197;-47
2022/07/31 02:33:00;;;;;;;8.50;7.38;;;20.30;45.30;;;;;;5055360;28;20645;-48
2022/07/31 02:35:27;;;;;;;7.30;6.50;;;20.30;45.30;;;;;;5055190;28;20185;-47
2022/07/31 02:37:54;;;;;;;8.23;6.82;;;20.30;45.40;;;;;;5055101;28;20222;-47
2022/07/31 02:40:24;;;;;;;8.25;5.95;;;20.30;45.40;;;;;;5055127;28;20197;-47
2022/07/31 02:42:51;;;;;;;7.53;6.35;;;20.20;45.20;;;;;;5055229;28;20173;-48
2022/07/31 02:45:18;;;;;;;9.43;7.35;;;20.20;45.40;;;;;;5055139;28;20204;-46
2022/07/31 02:47:44;;;;;;;7.53;6.75;;;20.20;45.30;;;;;;5054983;28;20177;-47
2022/07/31 02:50:11;;;;;;;7.32;6.43;;;20.20;45.50;;;;;;5055048;28;20182;-47
2022/07/31 02:52:37;;;;;;;8.18;7.35;;;20.10;45.60;;;;;;5054942;28;20594;-46
2022/07/31 02:55:04;;;;;;;6.85;6.15;;;20.10;45.50;;;;;;5055003;28;20193;-45
2022/07/31 02:57:30;;;;;;;6.00;5.40;;;20.10;45.40;;;;;;5054974;28;20174;-47
2022/07/31 02:59:56;;;;;;;6.90;5.60;;;20.10;45.30;;;;;;5055097;28;20710;-46
2022/07/31 03:02:22;;;;;;;7.27;5.80;;;20.10;45.40;;;;;;5054893;28;20759;-46
2022/07/31 03:04:47;;;;;;;9.73;6.67;;;20.10;45.30;;;;;;5054741;28;20169;-46
2022/07/31 03:07:16;;;;;;;7.33;6.53;;;20.10;45.20;;;;;;5054781;28;20415;-47
2022/07/31 03:09:42;;;;;;;7.13;6.28;;;20.00;45.20;;;;;;5054582;28;20681;-46
2022/07/31 03:12:08;;;;;;;8.68;7.15;;;20.10;45.30;;;;;;5054765;28;20209;-45
2022/07/31 03:14:35;;;;;;;6.57;5.97;;;20.00;45.20;;;;;;5054896;28;20656;-46
2022/07/31 03:17:01;;;;;;;7.63;6.28;;;20.00;45.10;;;;;;5054303;28;20408;-45
2022/07/31 03:19:28;;;;;;;8.98;6.68;;;20.00;45.30;;;;;;5053072;28;20208;-46
2022/07/31 03:21:55;;;;;;;8.32;7.45;;;20.00;45.30;;;;;;5054523;28;20169;-46
2022/07/31 03:24:21;;;;;;;7.50;6.35;;;19.90;45.30;;;;;;5054796;28;20230;-45
2022/07/31 03:26:47;;;;;;;7.05;6.20;;;19.90;45.30;;;;;;5054233;28;20175;-45
2022/07/31 03:29:13;;;;;;;7.37;6.33;;;19.90;45.40;;;;;;5054333;28;20563;-45
2022/07/31 03:31:38;;;;;;;8.07;7.27;;;20.00;45.60;;;;;;5054534;28;20560;-45
2022/07/31 03:34:04;;;;;;;6.80;6.10;;;19.90;45.70;;;;;;5054508;28;20169;-46
2022/07/31 03:36:30;;;;;;;8.17;7.37;;;19.90;45.80;;;;;;5053946;28;20169;-46
2022/07/31 03:38:56;;;;;;;7.68;5.97;;;19.90;45.70;;;;;;5054125;28;20280;-45
2022/07/31 03:41:22;;;;;;;6.83;6.10;;;19.80;45.80;;;;;;5054121;28;20597;-46
2022/07/31 03:43:49;;;;;;;7.83;6.90;;;19.80;45.70;;;;;;5054043;28;20408;-46
2022/07/31 03:46:18;;;;;;;7.10;6.00;;;19.80;45.80;;;;;;5053934;28;20177;-46
2022/07/31 03:48:45;;;;;;;9.52;7.45;;;19.80;45.90;;;;;;5053758;28;20207;-46
2022/07/31 03:51:12;;;;;;;7.78;6.68;;;19.80;45.60;;;;;;5053848;28;20222;-47
2022/07/31 03:53:38;;;;;;;8.63;7.72;;;19.80;45.80;;;;;;5053832;28;20256;-49
2022/07/31 03:56:05;;;;;;;8.40;6.45;;;19.80;45.60;;;;;;5053745;28;20189;-48
2022/07/31 03:58:31;;;;;;;7.75;6.95;;;19.70;45.60;;;;;;5053977;28;20182;-49
2022/07/31 04:00:58;;;;;;;7.60;6.78;;;19.70;45.70;;;;;;5053748;28;20181;-48
2022/07/31 04:03:29;;;;;;;8.77;7.38;;;19.70;45.80;;;;;;5053539;28;20189;-49
2022/07/31 04:05:55;;;;;;;7.30;5.93;;;19.70;45.90;;;;;;5053777;28;20173;-48
2022/07/31 04:08:21;;;;;;;8.00;6.70;;;19.70;45.80;;;;;;5053879;28;20184;-49
2022/07/31 04:10:47;;;;;;;8.17;7.37;;;19.70;45.80;;;;;;5053785;28;20238;-48
2022/07/31 04:13:12;;;;;;;6.93;5.70;;;19.80;45.80;;;;;;5053459;28;20185;-47
2022/07/31 04:15:38;;;;;;;7.40;6.40;;;19.80;45.90;;;;;;5053183;28;20403;-47
2022/07/31 04:18:04;;;;;;;7.50;6.50;;;19.80;46.00;;;;;;5053676;28;20180;-48
2022/07/31 04:20:30;;;;;;;8.77;7.33;;;19.80;46.20;;;;;;5053524;28;20668;-49
2022/07/31 04:22:55;;;;;;;7.97;6.53;;;19.50;46.10;;;;;;5053633;28;20485;-48
2022/07/31 04:25:21;;;;;;;7.30;6.63;;;19.90;46.20;;;;;;5053354;28;20180;-49
2022/07/31 04:27:47;;;;;;;6.63;6.00;;;20.00;46.10;;;;;;5052982;28;20177;-48
2022/07/31 04:30:13;;;;;;;8.13;6.83;;;20.00;46.10;;;;;;5053178;28;20447;-47
2022/07/31 04:32:39;;;;;;;8.10;7.30;;;20.00;46.20;;;;;;5052957;28;20564;-48
2022/07/31 04:35:06;;;;;;;8.15;6.72;;;20.10;46.20;;;;;;5053106;28;20185;-47
2022/07/31 04:37:32;;;;;;;8.90;7.72;;;20.20;46.20;;;;;;5052789;28;20185;-48
2022/07/31 04:39:58;;;;;;;9.68;8.00;;;20.20;46.40;;;;;;5052725;28;20213;-49
2022/07/31 04:42:23;;;;;;;8.30;7.50;;;20.20;46.40;;;;;;5052998;28;20227;-48
2022/07/31 04:44:49;;;;;;;8.83;7.80;;;20.30;46.70;;;;;;5052866;28;20173;-49
2022/07/31 04:47:15;;;;;;;8.40;7.10;;;20.30;46.90;;;;;;5052613;28;20169;-49
2022/07/31 04:49:41;;;;;;;8.13;7.33;;;20.40;46.70;;;;;;5053092;28;20262;-48
2022/07/31 04:52:07;;;;;;;7.65;6.60;;;20.40;46.60;;;;;;5052937;28;20201;-49
2022/07/31 04:54:33;;;;;;;8.23;7.35;;;20.50;46.60;;;;;;5052716;28;20180;-48
2022/07/31 04:56:59;;;;;;;8.68;6.95;;;20.60;46.50;;;;;;5052539;28;20249;-48
2022/07/31 04:59:25;;;;;;;8.20;6.60;;;20.60;46.50;;;;;;5052779;28;20276;-48
2022/07/31 05:01:51;;;;;;;8.70;7.03;;;20.70;46.40;;;;;;5052462;28;20177;-48
2022/07/31 05:04:17;;;;;;;7.60;5.83;;;20.70;46.40;;;;;;5052738;28;20173;-49
2022/07/31 05:06:49;;;;;;;8.68;7.80;;;20.80;46.60;;;;;;5052448;28;20426;-49
2022/07/31 05:09:23;;;;;;;8.32;6.45;;;21.00;46.70;;;;;;5052375;28;20681;-48
2022/07/31 05:11:50;;;;;;;9.48;7.30;;;21.00;46.70;;;;;;5052365;28;20717;-48
2022/07/31 05:14:18;;;;;;;7.32;6.57;;;21.10;46.90;;;;;;5034529;28;20181;-48
2022/07/31 05:16:44;;;;;;;6.90;6.20;;;21.20;46.70;;;;;;5052308;28;20184;-48
2022/07/31 05:19:10;;;;;;;7.60;6.07;;;21.30;46.60;;;;;;5052514;28;20556;-47
2022/07/31 05:21:36;;;;;;;6.78;5.13;;;21.40;46.60;;;;;;5052228;28;20404;-48
2022/07/31 05:24:02;;;;;;;6.07;5.03;;;21.50;46.50;;;;;;5052222;28;20180;-47
2022/07/31 05:26:29;;;;;;;6.88;6.15;;;21.60;46.50;;;;;;5051949;28;20173;-47
2022/07/31 05:28:57;;;;;;;7.57;6.32;;;21.70;46.50;;;;;;5052436;28;20205;-48
2022/07/31 05:31:23;;;;;;;6.90;6.20;;;21.80;46.50;;;;;;5052355;28;20203;-49
2022/07/31 05:33:50;;;;;;;6.63;5.80;;;21.90;46.40;;;;;;5052231;28;20395;-49
2022/07/31 05:36:17;;;;;;;7.47;6.57;;;21.90;46.20;;;;;;5051930;28;20168;-48
2022/07/31 05:38:43;;;;;;;6.83;6.17;;;22.00;46.20;;;;;;5051834;28;20403;-48
2022/07/31 05:41:09;;;;;;;5.95;4.95;;;22.10;46.30;;;;;;5060757;23;20492;-48
2022/07/31 05:43:36;;;;;;;9.68;5.47;;;22.20;46.20;;;;;;5019916;28;20174;-47
2022/07/31 05:46:04;;;;;;;7.13;6.43;;;22.30;46.10;;;;;;5012181;28;20173;-47
2022/07/31 05:48:30;;;;;;;8.00;5.43;;;22.40;45.80;;;;;;5012442;28;20413;-48
2022/07/31 05:50:56;;;;;;;8.60;5.50;;;22.50;46.00;;;;;;5012130;28;20457;-48
2022/07/31 05:53:21;;;;;;;8.37;4.90;;;22.60;46.00;;;;;;5012273;28;20405;-47
2022/07/31 05:55:49;;;;;;;5.30;4.80;;;22.70;45.80;;;;;;5012156;28;20189;-49
2022/07/31 05:58:16;;;;;;;7.70;5.30;;;22.90;46.50;;;;;;5012288;28;20171;-48
2022/07/31 06:00:44;;;;;;;5.50;4.73;;;23.00;45.70;;;;;;5012099;28;20489;-48
2022/07/31 06:03:13;;;;;;;4.77;3.97;;;23.00;45.60;;;;;;5012298;28;20406;-48
2022/07/31 06:05:40;;;;;;;5.10;4.50;;;23.10;45.50;;;;;;5011895;28;20885;-48
2022/07/31 06:08:06;;;;;;;6.60;4.97;;;23.20;45.30;;;;;;5012131;28;20481;-48
2022/07/31 06:10:31;;;;;;;4.60;4.20;;;23.30;45.60;;;;;;5011962;28;20442;-48
2022/07/31 06:12:57;;;;;;;5.30;4.67;;;23.50;45.40;;;;;;5012123;28;20897;-48
2022/07/31 06:15:23;;;;;;;4.70;3.70;;;23.50;44.80;;;;;;5011958;28;20413;-48
2022/07/31 06:17:49;;;;;;;4.30;3.60;;;23.60;44.90;;;;;;5011918;28;20198;-48
2022/07/31 06:20:15;;;;;;;7.13;6.43;;;23.80;44.90;;;;;;5012043;28;20434;-48
2022/07/31 06:22:42;;;;;;;5.60;4.33;;;23.80;44.80;;;;;;5011953;28;20816;-48
2022/07/31 06:25:09;;;;;;;6.30;4.53;;;24.00;44.90;;;;;;5012141;28;20448;-48
2022/07/31 06:27:35;;;;;;;7.07;4.67;;;24.10;44.30;;;;;;5011806;28;20436;-48
2022/07/31 06:30:05;;;;;;;4.60;4.10;;;24.10;44.30;;;;;;5011868;28;20802;-47
2022/07/31 06:32:35;;;;;;;4.53;4.07;;;24.20;44.20;;;;;;5011772;28;20507;-49
2022/07/31 06:35:01;;;;;;;4.33;3.67;;;24.30;43.90;;;;;;5011853;28;20409;-48
2022/07/31 06:37:27;;;;;;;4.57;4.10;;;24.40;44.00;;;;;;5011732;28;20484;-48
2022/07/31 06:39:53;;;;;;;5.00;3.83;;;24.50;43.90;;;;;;5011912;28;20505;-48
2022/07/31 06:42:23;;;;;;;4.80;4.30;;;24.60;43.70;;;;;;5011749;28;20442;-49
2022/07/31 06:44:50;;;;;;;3.83;3.40;;;24.70;43.70;;;;;;5011762;28;20401;-49
2022/07/31 06:47:17;;;;;;;4.70;4.00;;;24.80;43.40;;;;;;5011508;28;20502;-46
2022/07/31 06:49:42;;;;;;;4.87;4.10;;;24.90;42.80;;;;;;5011798;28;20413;-49
2022/07/31 06:52:08;;;;;;;5.03;4.20;;;25.10;42.40;;;;;;5011830;28;20860;-49
2022/07/31 06:54:34;;;;;;;5.10;4.47;;;25.10;42.90;;;;;;5014389;28;20171;-47
2022/07/31 06:57:00;;;;;;;3.90;3.50;;;25.20;42.60;;;;;;5015042;28;20409;-49
2022/07/31 06:59:26;;;;;;;4.03;3.63;;;25.30;42.60;;;;;;5015191;28;20267;-49
2022/07/31 07:01:51;;;;;;;4.33;3.57;;;25.40;42.20;;;;;;5015100;28;20564;-47
2022/07/31 07:04:18;;;;;;;6.37;4.10;;;25.50;41.80;;;;;;5015212;28;20635;-47
2022/07/31 07:06:43;;;;;;;4.97;4.40;;;25.50;41.70;;;;;;5014956;28;20163;-47
2022/07/31 07:09:09;;;;;;;4.87;4.30;;;25.70;41.60;;;;;;5015091;28;20409;-48
2022/07/31 07:11:35;;;;;;;6.10;4.93;;;25.70;41.30;;;;;;5014929;28;20209;-48
2022/07/31 07:14:00;;;;;;;7.70;4.30;;;25.80;41.60;;;;;;5015319;28;20170;-48
2022/07/31 07:16:26;;;;;;;4.10;3.67;;;25.90;40.80;;;;;;5014829;28;20185;-47
2022/07/31 07:18:52;;;;;;;4.97;4.13;;;25.90;40.90;;;;;;5015113;28;20194;-48
2022/07/31 07:21:18;;;;;;;6.27;4.80;;;26.00;41.30;;;;;;5014978;28;20335;-49
2022/07/31 07:23:44;;;;;;;6.20;5.60;;;26.20;41.50;;;;;;5015209;28;20175;-48
2022/07/31 07:26:10;;;;;;;4.80;4.20;;;26.30;41.00;;;;;;5014633;28;20635;-47
2022/07/31 07:28:36;;;;;;;9.33;4.13;;;26.40;41.30;;;;;;5014749;28;20935;-47
2022/07/31 07:31:04;;;;;;;4.40;3.97;;;26.50;40.80;;;;;;5014687;28;20453;-47
2022/07/31 07:33:31;;;;;;;5.47;4.30;;;26.60;40.50;;;;;;5014779;28;20398;-48
2022/07/31 07:35:57;;;;;;;4.43;3.87;;;26.60;39.50;;;;;;5014411;28;20441;-49
2022/07/31 07:38:23;;;;;;;5.60;3.90;;;26.70;39.70;;;;;;5014643;28;20401;-48
2022/07/31 07:40:50;;;;;;;6.17;3.90;;;26.80;39.60;;;;;;5014396;28;20410;-49
2022/07/31 07:43:16;;;;;;;7.17;5.33;;;26.90;40.10;;;;;;5014538;28;20394;-49
2022/07/31 07:45:41;;;;;;;6.17;5.20;;;27.00;40.30;;;;;;5014165;28;20431;-46
2022/07/31 07:48:08;;;;;;;5.30;4.00;;;27.00;40.10;;;;;;5014427;28;20394;-49
2022/07/31 07:50:33;;;;;;;5.43;4.80;;;27.20;40.20;;;;;;5014156;28;20496;-47
2022/07/31 07:52:59;;;;;;;5.50;3.90;;;27.30;39.60;;;;;;5014313;28;20533;-49
2022/07/31 07:55:25;;;;;;;5.33;4.03;;;27.40;39.20;;;;;;5014231;28;20167;-48
2022/07/31 07:57:51;;;;;;;13.33;4.77;;;27.40;39.50;;;;;;5013974;28;20181;-49
2022/07/31 08:00:17;;;;;;;4.90;4.40;;;27.50;39.20;;;;;;5014287;28;20436;-50
2022/07/31 08:02:47;;;;;;;6.43;4.60;;;27.60;39.40;;;;;;5014429;28;20838;-47
2022/07/31 08:05:15;;;;;;;5.50;4.50;;;27.70;38.70;;;;;;5013354;28;20408;-49
2022/07/31 08:07:41;;;;;;;5.33;4.37;;;27.70;38.60;;;;;;5013824;28;20769;-48
2022/07/31 08:10:08;;;;;;;5.17;4.43;;;27.80;38.30;;;;;;5013928;28;20423;-49
2022/07/31 08:12:35;;;;;;;7.37;4.57;;;27.80;38.30;;;;;;5013706;28;20868;-47
2022/07/31 08:15:01;;;;;;;4.73;4.23;;;27.90;37.70;;;;;;5014011;28;20472;-49
2022/07/31 08:17:27;;;;;;;5.40;4.20;;;27.90;38.00;;;;;;5013666;28;20739;-47
2022/07/31 08:19:52;;;;;;;6.23;4.53;;;28.00;38.50;;;;;;5013833;28;20412;-49
2022/07/31 08:22:18;;;;;;;5.30;4.07;;;28.10;38.30;;;;;;5013751;28;20449;-49
2022/07/31 08:24:44;;;;;;;5.93;4.27;;;28.20;38.30;;;;;;5013886;28;20172;-47
2022/07/31 08:27:23;;;;;;;5.53;4.33;;;28.30;37.90;;;;;;5013368;28;20646;-49
2022/07/31 08:29:54;;;;;;;5.03;4.17;;;28.40;37.90;;;;;;5013568;28;20261;-50
2022/07/31 08:32:20;;;;;;;5.50;4.30;;;28.60;37.90;;;;;;5013642;28;20465;-48
2022/07/31 08:34:46;;;;;;;5.33;4.30;;;28.60;37.60;;;;;;5013779;28;20645;-50
2022/07/31 08:37:12;;;;;;;5.17;3.90;;;28.70;37.40;;;;;;5013188;28;20868;-49
2022/07/31 08:39:38;;;;;;;4.03;3.17;;;28.80;37.40;;;;;;5013506;28;20198;-48
2022/07/31 08:42:09;;;;;;;4.70;4.30;;;28.90;37.40;;;;;;5011805;28;20214;-49
2022/07/31 08:44:36;;;;;;;7.30;4.63;;;29.00;37.40;;;;;;5013387;28;20406;-48
2022/07/31 08:47:06;;;;;;;7.73;4.27;;;29.10;36.50;;;;;;5013229;28;20810;-48
2022/07/31 08:49:36;;;;;;;6.00;3.87;;;29.10;36.00;;;;;;5013374;28;20439;-48
2022/07/31 08:52:02;;;;;;;6.13;4.47;;;29.20;36.10;;;;;;5013022;28;21004;-49
2022/07/31 08:54:31;;;;;;;5.30;4.30;;;29.30;36.40;;;;;;5013108;28;20401;-50
2022/07/31 08:56:58;;;;;;;4.60;3.60;;;29.40;36.60;;;;;;5012703;28;20402;-48
2022/07/31 08:59:24;;;;;;;5.40;4.70;;;29.40;35.40;;;;;;5013059;28;20509;-49
2022/07/31 09:01:50;;;;;;;5.83;4.20;;;29.50;35.40;;;;;;5013107;28;20511;-48
2022/07/31 09:04:16;;;;;;;5.63;4.00;;;29.50;35.40;;;;;;5013000;28;20534;-49
2022/07/31 09:06:41;;;;;;;3.87;3.47;;;29.60;35.90;;;;;;5012745;28;20410;-50
2022/07/31 09:09:07;;;;;;;6.83;4.00;;;29.60;35.60;;;;;;5012977;28;20963;-48
2022/07/31 09:11:33;;;;;;;4.63;4.10;;;29.70;35.60;;;;;;5012772;28;20207;-48
2022/07/31 09:14:02;;;;;;;3.87;3.40;;;29.90;34.50;;;;;;5013001;28;20258;-50
2022/07/31 09:16:29;;;;;;;9.00;3.63;;;29.90;34.10;;;;;;5012010;28;20430;-50
2022/07/31 09:19:03;;;;;;;4.47;3.90;;;29.90;34.60;;;;;;5012632;28;20481;-49
2022/07/31 09:21:45;;;;;;;4.83;3.83;;;30.00;34.90;;;;;;5012573;28;20484;-49
2022/07/31 09:24:24;;;;;;;5.93;4.03;;;30.10;34.80;;;;;;5012645;28;20416;-48
2022/07/31 09:27:00;;;;;;;4.43;4.03;;;30.10;34.70;;;;;;5012581;28;20776;-48
2022/07/31 09:29:40;;;;;;;3.80;3.43;;;30.10;34.20;;;;;;5012770;28;20445;-50
2022/07/31 09:32:13;;;;;;;3.83;2.57;;;30.10;33.00;;;;;;5012357;28;20548;-49
2022/07/31 09:34:43;;;;;;;5.30;4.80;;;30.10;34.20;;;;;;5012846;28;20463;-48
2022/07/31 09:37:14;;;;;;;4.67;3.90;;;30.20;34.40;;;;;;5012587;28;20420;-48
2022/07/31 09:39:40;;;;;;;5.00;4.30;;;30.50;34.40;;;;;;5012610;28;20399;-48
2022/07/31 09:42:07;;;;;;;5.40;4.50;;;30.60;33.50;;;;;;5012180;28;20453;-49
2022/07/31 09:44:41;;;;;;;4.43;3.67;;;30.70;32.60;;;;;;5012369;28;20413;-49
2022/07/31 09:47:29;;;;;;;6.20;3.60;;;30.60;32.90;;;;;;5012287;28;20409;-49
2022/07/31 09:49:57;;;;;;;4.90;4.40;;;30.80;32.70;;;;;;5012448;28;20386;-51
2022/07/31 09:52:24;;;;;;;4.40;4.00;;;30.80;32.00;;;;;;5012343;28;20445;-49
2022/07/31 09:55:07;;;;;;;4.00;3.60;;;30.90;31.80;;;;;;5012328;28;20520;-50
2022/07/31 09:57:34;;;;;;;4.07;3.30;;;30.90;31.70;;;;;;5012451;28;20813;-48
2022/07/31 10:00:01;;;;;;;9.50;4.20;;;31.00;31.60;;;;;;5012561;28;20493;-49
2022/07/31 10:02:29;;;;;;;4.97;3.90;;;31.10;32.40;;;;;;5012357;28;20452;-49
2022/07/31 10:04:56;;;;;;;5.37;4.30;;;31.10;32.00;;;;;;5012433;28;20497;-49
2022/07/31 10:07:26;;;;;;;5.97;5.37;;;31.10;32.30;;;;;;5012910;28;20417;-50
2022/07/31 10:09:56;;;;;;;4.63;3.70;;;31.00;32.50;;;;;;5015004;28;20412;-49
2022/07/31 10:12:27;;;;;;;4.50;3.80;;;31.00;31.00;;;;;;5015687;28;20998;-50
2022/07/31 10:14:58;;;;;;;5.73;4.30;;;31.00;32.10;;;;;;5013561;28;20393;-49
2022/07/31 10:17:29;;;;;;;3.93;3.53;;;31.10;32.40;;;;;;5014025;28;20416;-50
2022/07/31 10:20:01;;;;;;;4.00;3.00;;;31.20;31.40;;;;;;5013702;28;20480;-50
2022/07/31 10:22:33;;;;;;;10.73;9.20;;;31.30;31.60;;;;;;5013840;28;20444;-48
2022/07/31 10:25:01;;;;;;;6.10;5.00;;;31.40;30.90;;;;;;5013793;28;20420;-49
2022/07/31 10:27:28;;;;;;;4.50;4.10;;;31.50;31.30;;;;;;5013947;28;20410;-48
2022/07/31 10:29:55;;;;;;;4.97;3.40;;;31.70;31.30;;;;;;5015546;28;20417;-49
2022/07/31 10:32:21;;;;;;;7.00;4.03;;;31.80;30.70;;;;;;5015641;28;20454;-49
2022/07/31 10:34:47;;;;;;;4.60;4.00;;;32.00;30.70;;;;;;5015725;28;20398;-48
2022/07/31 10:37:19;;;;;;;4.43;3.20;;;32.00;30.70;;;;;;5015595;28;20424;-49
2022/07/31 10:40:07;;;;;;;5.40;4.90;;;32.20;31.10;;;;;;5015613;28;20405;-50
2022/07/31 10:42:41;;;;;;;5.90;3.43;;;32.40;29.90;;;;;;5015534;28;20459;-49
2022/07/31 10:45:10;;;;;;;5.73;3.87;;;32.50;29.90;;;;;;5015545;28;20411;-50
2022/07/31 10:47:36;;;;;;;28.07;25.07;;;32.50;29.90;;;;;;5015324;28;20424;-49
2022/07/31 10:50:06;;;;;;;10.37;9.30;;;32.60;29.90;;;;;;5015488;28;20405;-49
2022/07/31 10:52:34;;;;;;;5.40;4.63;;;32.70;30.00;;;;;;5015157;28;20495;-50
2022/07/31 10:55:00;;;;;;;4.93;4.43;;;32.90;30.20;;;;;;5015346;28;20405;-50
2022/07/31 10:57:32;;;;;;;5.40;4.53;;;32.80;29.70;;;;;;5014985;28;20417;-50
2022/07/31 11:00:12;;;;;;;4.20;3.73;;;32.70;29.50;;;;;;5015501;28;20429;-50
2022/07/31 11:02:38;;;;;;;3.70;3.40;;;32.60;29.20;;;;;;5015461;28;20464;-49
2022/07/31 11:05:12;;;;;;;6.13;4.37;;;32.30;30.20;;;;;;5015201;28;20412;-48
2022/07/31 11:07:44;;;;;;;10.37;7.87;;;32.20;29.70;;;;;;5015271;28;20394;-48
2022/07/31 11:10:19;;;;;;;4.80;4.00;;;32.20;29.50;;;;;;5015043;28;20414;-49
2022/07/31 11:12:57;;;;;;;4.97;3.50;;;32.30;29.60;;;;;;5015074;28;20456;-50
2022/07/31 11:15:25;;;;;;;4.73;3.77;;;32.30;30.30;;;;;;5015052;28;20392;-50
2022/07/31 11:17:51;;;;;;;6.30;4.07;;;32.60;30.00;;;;;;5014937;28;20400;-50
2022/07/31 11:20:22;;;;;;;4.13;3.77;;;32.70;29.50;;;;;;5014949;28;20397;-48
2022/07/31 11:23:09;;;;;;;4.63;3.63;;;32.70;29.00;;;;;;5014978;28;20510;-49
2022/07/31 11:25:36;;;;;;;4.77;4.30;;;32.60;28.80;;;;;;5014663;28;20881;-49
2022/07/31 11:28:14;;;;;;;5.13;4.20;;;32.50;29.10;;;;;;5014764;28;20485;-49
2022/07/31 11:30:53;;;;;;;4.67;3.80;;;32.50;29.80;;;;;;5014408;28;20405;-49
2022/07/31 11:33:34;;;;;;;11.30;4.33;;;32.70;30.00;;;;;;5014714;28;20436;-49
2022/07/31 11:36:11;;;;;;;4.27;3.40;;;32.90;29.10;;;;;;5013196;28;20919;-48
2022/07/31 11:38:40;;;;;;;4.30;3.67;;;33.10;29.10;;;;;;5014501;28;20409;-49
2022/07/31 11:41:06;;;;;;;6.17;3.37;;;33.30;29.40;;;;;;5013082;28;20481;-50
2022/07/31 11:43:33;;;;;;;4.23;3.50;;;33.50;28.30;;;;;;5014396;28;20413;-49
2022/07/31 11:46:01;;;;;;;4.40;3.80;;;33.60;28.00;;;;;;5014376;28;20466;-48
2022/07/31 11:48:30;;;;;;;5.30;3.60;;;33.70;27.50;;;;;;5014418;28;20410;-49
2022/07/31 11:50:57;;;;;;;3.30;3.00;;;33.90;27.40;;;;;;5014223;28;20819;-48
2022/07/31 11:53:23;;;;;;;3.90;3.30;;;33.90;27.10;;;;;;5014527;28;20484;-48
2022/07/31 11:56:00;;;;;;;5.20;4.27;;;33.70;27.20;;;;;;5013832;28;20537;-49
2022/07/31 11:58:27;;;;;;;5.80;2.90;;;33.50;27.00;;;;;;5014092;28;20404;-49
2022/07/31 12:01:00;;;;;;;4.17;3.60;;;33.10;26.90;;;;;;5014036;28;20439;-48
2022/07/31 12:03:32;;;;;;;6.90;3.20;;;32.70;27.50;;;;;;5014170;28;20409;-49
2022/07/31 12:08:29;;;;;;;5.60;3.10;;;32.30;27.30;;;;;;5011731;28;20484;-46
2022/07/31 12:10:58;;;;;;;3.90;3.10;;;32.10;27.50;;;;;;5014036;28;20406;-46
2022/07/31 12:13:25;;;;;;;2.93;2.57;;;32.00;28.10;;;;;;5013865;28;20414;-43
2022/07/31 12:16:00;;;;;;;3.53;3.00;;;31.80;28.30;;;;;;5013570;28;20449;-46
2022/07/31 12:18:28;;;;;;;7.17;4.47;;;31.70;28.60;;;;;;4994523;28;20757;-43
2022/07/31 12:21:03;;;;;;;4.67;3.03;;;31.70;28.70;;;;;;4994127;28;20921;-44
2022/07/31 12:23:50;;;;;;;3.57;3.10;;;31.60;29.10;;;;;;4994107;28;20413;-44
2022/07/31 12:26:27;;;;;;;4.10;3.70;;;31.60;29.10;;;;;;4993813;28;20402;-44
2022/07/31 12:29:01;;;;;;;6.57;2.57;;;31.70;28.70;;;;;;4993962;28;20742;-45
2022/07/31 12:31:28;;;;;;;3.77;2.57;;;32.00;28.30;;;;;;4994024;28;20613;-43
2022/07/31 12:33:54;;;;;;;3.90;2.80;;;32.30;28.50;;;;;;4993820;28;20403;-46
2022/07/31 12:36:20;;;;;;;3.53;2.70;;;32.70;27.70;;;;;;4993494;28;20424;-43
2022/07/31 12:38:59;;;;;;;4.03;2.50;;;33.00;26.80;;;;;;4993599;28;20464;-44
2022/07/31 12:41:25;;;;;;;3.90;3.30;;;33.10;26.70;;;;;;4993719;28;20987;-44
2022/07/31 12:43:51;;;;;;;10.63;9.20;;;33.30;26.10;;;;;;4993786;28;20420;-46
2022/07/31 12:46:17;;;;;;;3.90;3.53;;;33.50;24.70;;;;;;4993395;28;20442;-44
2022/07/31 12:48:43;;;;;;;3.97;2.77;;;33.60;24.90;;;;;;4993358;28;20214;-47
2022/07/31 12:51:09;;;;;;;4.03;2.63;;;33.70;25.50;;;;;;4993086;28;20854;-45
2022/07/31 12:53:35;;;;;;;2.57;2.20;;;33.90;25.30;;;;;;4993629;28;20179;-46